NY/NJ Local METAR Reports

 

KNYC - NYC/Central Park, NY, USA
Distance from Hoboken: NE 4mi, 7km
Updated: 05/22/2019 8:51am
Clear
Clear
 Wind from varies
Wind: varies 5 mph , 7 km/h
Temperature: 61°F , 16°C
Dew Point: 37°F , 3°C
Humidity: 42%
Barometer: 30.26 inHg , 1024.7 hPa
Clouds: Clear
Visibility: 10 miles , 16 km
2019/05/22 12:51 KNYC 221251Z AUTO VRB04KT 10SM CLR 16/03 A3026 RMK AO2 SLP236 T01610028 $
KEWR - Newark, NJ, USA
Distance from Hoboken: WSW 8mi, 13km
Updated: 05/22/2019 8:51am
Partly cloudy
Partly cloudy
 Wind from NW
Wind: NW 9 mph , 15 km/h
Temperature: 64°F , 18°C
Dew Point: 39°F , 4°C
Humidity: 40%
Barometer: 30.23 inHg , 1023.7 hPa
Clouds: Partly cloudy
Visibility: 10 miles , 16 km
Cloud details: Partly cloudy 25000 ft
2019/05/22 12:51 KEWR 221251Z 31008KT 10SM SCT250 18/04 A3023 RMK AO2 SLP237 T01830039
 
KLGA - NYC/La Guardia, NY, USA
Distance from Hoboken: ENE 8mi, 13km
Updated: 05/22/2019 8:51am
Few Clouds
Few Clouds
 Wind from NNW
Wind: NNW 10 mph , 17 km/h
Temperature: 63°F , 17°C
Dew Point: 36°F , 2°C
Humidity: 37%
Barometer: 30.22 inHg , 1023.4 hPa
Clouds: Few Clouds
Visibility: 10 miles , 16 km
Cloud details: Few Clouds 25000 ft
2019/05/22 12:51 KLGA 221251Z 33009KT 10SM FEW250 17/02 A3022 RMK AO2 SLP234 T01720022 $
KTEB - Teterboro, NJ, USA
Distance from Hoboken: N 9mi, 14km
Updated: 05/22/2019 8:51am
Clear
Clear
 Wind from NNW
Wind: NNW 7 mph , 11 km/h
Temperature: 64°F , 18°C
Dew Point: 39°F , 4°C
Humidity: 40%
Barometer: 30.22 inHg , 1023.4 hPa
Clouds: Clear
Visibility: 10 miles , 16 km
2019/05/22 12:51 KTEB 221251Z 33006KT 10SM CLR 18/04 A3022 RMK AO2 SLP233 T01780039
 
KJFK - NYC/Jfk Arpt, NY, USA
Distance from Hoboken: ESE 16mi, 25km
Updated: 05/22/2019 8:51am
Partly cloudy
Partly cloudy
 Wind from N
Wind: N 12 mph , 19 km/h, Gust: 18 mph , 30 km/h
Temperature: 64°F , 18°C
Dew Point: 37°F , 3°C
Humidity: 37%
Barometer: 30.23 inHg , 1023.7 hPa
Clouds: Partly cloudy
Visibility: 10 miles , 16 km
Cloud details: Partly cloudy 25000 ft
2019/05/22 12:51 KJFK 221251Z 01010G16KT 10SM SCT250 18/03 A3023 RMK AO2 SLP237 T01830033
KCDW - Caldwell, NJ, USA
Distance from Hoboken: NW 16mi, 26km
Updated: 05/22/2019 8:53am
Clear
Clear
 Wind from varies
Wind: varies 3 mph , 6 km/h
Temperature: 64°F , 18°C
Dew Point: 39°F , 4°C
Humidity: 40%
Barometer: 30.25 inHg , 1024.4 hPa
Clouds: Clear
Visibility: 10 miles , 16 km
2019/05/22 12:53 KCDW 221253Z VRB03KT 10SM CLR 18/04 A3025 RMK AO2 SLP247 T01780044
 
KMMU - Morristown Muni, NJ, USA
Distance from Hoboken: W 20mi, 33km
Updated: 05/22/2019 8:45am
Partly cloudy
Partly cloudy
 Wind from WNW
Wind: WNW 6 mph , 9 km/h
Temperature: 63°F , 17°C
Dew Point: 45°F , 7°C
Humidity: 52%
Barometer: 30.25 inHg , 1024.4 hPa
Clouds: Partly cloudy
Visibility: 10 miles , 16 km
Cloud details: Partly cloudy 25000 ft
2019/05/22 12:45 KMMU 221245Z 29005KT 10SM SCT250 17/07 A3025
KHPN - White Plains, NY, USA
Distance from Hoboken: NE 28mi, 46km
Updated: 05/22/2019 8:56am
Clear
Clear
 Wind from NNW
Wind: NNW 14 mph , 22 km/h, Gust: 22 mph , 35 km/h
Temperature: 61°F , 16°C
Dew Point: 39°F , 4°C
Humidity: 45%
Barometer: 30.21 inHg , 1023 hPa
Clouds: Clear
Visibility: 10 miles , 16 km
2019/05/22 12:56 KHPN 221256Z 34012G19KT 10SM CLR 16/04 A3021 RMK AO2 SLP228 T01610039
 
KFRG - Farmingdale, NY, USA
Distance from Hoboken: E 32mi, 52km
Updated: 05/22/2019 8:53am
Clear
Clear
 Wind from N
Wind: N 15 mph , 24 km/h, Gust: 23 mph , 37 km/h
Temperature: 63°F , 17°C
Dew Point: 36°F , 2°C
Humidity: 37%
Barometer: 30.22 inHg , 1023.4 hPa
Clouds: Clear
Visibility: 10 miles , 16 km
2019/05/22 12:53 KFRG 221253Z AUTO 36013G20KT 10SM CLR 17/02 A3022 RMK AO2 SLP232 T01670022
KSMQ - Somerville, NJ, USA
Distance from Hoboken: WSW 34mi, 55km
Updated: 05/22/2019 8:53am
Clear
Clear
 Wind from NNW
Wind: NNW 3 mph , 6 km/h
Temperature: 61°F , 16°C
Dew Point: 45°F , 7°C
Humidity: 55%
Barometer: 30.24 inHg , 1024 hPa
Clouds: Clear
Visibility: 10 miles , 16 km
2019/05/22 12:53 KSMQ 221253Z AUTO 33003KT 10SM CLR 16/07 A3024 RMK AO2 SLP239 T01560067
 
KBLM - Belmar/Farmdale, NJ, USA
Distance from Hoboken: S 40mi, 64km
Updated: 05/22/2019 8:56am
Clear
Clear
 Wind from NW
Wind: NW 9 mph , 15 km/h
Temperature: 63°F , 17°C
Dew Point: 41°F , 5°C
Humidity: 45%
Barometer: 30.25 inHg , 1024.4 hPa
Clouds: Clear
Visibility: 10 miles , 16 km
2019/05/22 12:56 KBLM 221256Z AUTO 31008KT 10SM CLR 17/05 A3025 RMK AO2 SLP244 T01670050
K12N - Andover, NJ, USA
Distance from Hoboken: WNW 41mi, 67km
Updated: 05/22/2019 8:54am

 Wind from varies
Wind: varies 3 mph , 6 km/h
Temperature: 59°F , 15°C
Dew Point: 41°F , 5°C
Humidity: 51%
Barometer: 30.25 inHg , 1024.4 hPa
2019/05/22 12:54 K12N 221254Z AUTO VRB03KT 15/05 A3025 RMK AO1 SLP243 T01500050
 
KFWN - Sussex, NJ, USA
Distance from Hoboken: NW 45mi, 72km
Updated: 05/22/2019 8:53am
Clear
Clear
 Wind from N
Wind: N 6 mph , 9 km/h
Temperature: 63°F , 17°C
Dew Point: 41°F , 5°C
Humidity: 45%
Barometer: 30.24 inHg , 1024 hPa
Clouds: Clear
Visibility: 10 miles , 16 km
2019/05/22 12:53 KFWN 221253Z AUTO 01005KT 10SM CLR 17/05 A3024 RMK AO2 SLP240 T01720050
KISP - Islip, NY, USA
Distance from Hoboken: E 49mi, 79km
Updated: 05/22/2019 8:56am
Partly cloudy
Partly cloudy
 Wind from N
Wind: N 13 mph , 20 km/h
Temperature: 63°F , 17°C
Dew Point: 39°F , 4°C
Humidity: 42%
Barometer: 30.21 inHg , 1023 hPa
Clouds: Partly cloudy
Visibility: 10 miles , 16 km
Cloud details: Partly cloudy 25000 ft
2019/05/22 12:56 KISP 221256Z 35011KT 10SM SCT250 17/04 A3021 RMK AO2 SLP229 T01720039 $